Chicago, Illinois
Traffic Map
Current Weather Conditions
Chicago, Illinois
Broken Clouds
Broken Clouds
22°
Feels Like: 22°
Wind Chill: 22° Ceiling: 2100
Heat Index: 22° Visibility: 10mi
Dew Point: 16° Wind: 17mph
Humidity: 70% Direction: 260° (W)
Pressure: 29.94in Gusts: 23mph
Raw Report DataKMDW 271353Z 26015G20KT 10SM BKN021 22/16 A2994 RMK AO2 SLP131 T02170161 PNO
Traffic Incident Summary
Active as of:
Severity:
Category:
InformationThere was an issue retrieving the traffic information for this location. Please try a different location or try again shortly.
Advertisements
Track Severe Weather on mobile